createdAt,value
2018-09-15T10:31:12.749Z,18.50
2018-09-15T10:33:14.825Z,18.30
2018-09-15T10:35:16.961Z,18.10
2018-09-15T10:37:19.024Z,18.00
2018-09-15T10:39:21.149Z,17.90
2018-09-15T10:41:23.274Z,18.00
2018-09-15T10:43:25.394Z,17.90
2018-09-15T10:45:27.506Z,18.00
2018-09-15T10:47:29.589Z,18.00
2018-09-15T10:49:31.705Z,18.10
2018-09-15T10:51:34.183Z,18.30
2018-09-15T10:53:36.385Z,18.60
2018-09-15T10:55:38.514Z,19.00
2018-09-15T10:57:41.035Z,19.30
2018-09-15T10:59:43.359Z,20.20
2018-09-15T11:01:45.616Z,20.60
2018-09-15T11:03:47.789Z,20.70
2018-09-15T11:05:49.986Z,20.70
2018-09-15T11:07:52.092Z,20.70
2018-09-15T11:09:54.283Z,20.70
2018-09-15T11:11:56.395Z,20.70
2018-09-15T11:13:58.598Z,20.60
2018-09-15T11:16:00.732Z,21.00
2018-09-15T11:18:02.877Z,20.80
2018-09-15T11:20:05.078Z,20.90
2018-09-15T11:22:07.198Z,20.80
2018-09-15T11:24:09.280Z,20.90
2018-09-15T11:26:11.375Z,20.70
2018-09-15T11:28:13.492Z,21.00
2018-09-15T11:30:15.577Z,21.20
2018-09-15T11:32:17.630Z,21.20
2018-09-15T11:34:19.694Z,21.00
2018-09-15T11:36:21.794Z,20.70
2018-09-15T11:38:23.876Z,21.00
2018-09-15T11:40:26.057Z,21.10
2018-09-15T11:42:28.164Z,21.50
2018-09-15T11:44:30.238Z,21.60
2018-09-15T11:46:32.365Z,21.30
2018-09-15T11:48:34.455Z,21.10
2018-09-15T11:50:36.507Z,21.00
2018-09-15T11:52:38.565Z,20.80
2018-09-15T11:54:40.682Z,20.60
2018-09-15T11:56:42.808Z,20.20
2018-09-15T11:58:44.909Z,20.20
2018-09-15T12:00:51.389Z,20.00
2018-09-15T12:02:53.539Z,19.90
2018-09-15T12:04:57.242Z,19.70
2018-09-15T12:06:59.370Z,19.70
2018-09-15T12:09:01.508Z,19.60
2018-09-15T12:11:03.672Z,19.60
2018-09-15T12:13:05.812Z,19.60
2018-09-15T12:15:07.929Z,19.60
2018-09-15T12:17:10.063Z,19.50
2018-09-15T12:19:12.138Z,19.50
2018-09-15T12:21:14.267Z,19.40
2018-09-15T12:23:16.325Z,19.20
2018-09-15T12:25:18.411Z,19.20
2018-09-15T12:27:20.508Z,19.20
2018-09-15T12:29:22.620Z,19.20
2018-09-15T12:31:24.680Z,19.30
2018-09-15T12:33:26.806Z,19.30
2018-09-15T12:35:28.915Z,19.30
2018-09-15T12:37:31.039Z,19.30
2018-09-15T12:39:33.173Z,19.20
2018-09-15T12:41:35.295Z,19.20
2018-09-15T12:43:37.449Z,19.10
2018-09-15T12:45:39.593Z,19.10
2018-09-15T12:47:41.709Z,19.10
2018-09-15T12:49:43.789Z,19.10
2018-09-15T12:51:45.973Z,19.00
2018-09-15T12:53:48.035Z,18.90
2018-09-15T12:55:50.168Z,19.00
2018-09-15T12:57:52.397Z,19.00
2018-09-15T12:59:54.478Z,19.00
2018-09-15T13:01:56.577Z,19.10
2018-09-15T13:03:58.705Z,19.10
2018-09-15T13:06:00.828Z,19.10
2018-09-15T13:08:03.028Z,19.10
2018-09-15T13:10:05.192Z,19.20
2018-09-15T13:12:07.368Z,19.30
2018-09-15T13:14:09.503Z,19.50
2018-09-15T13:16:11.614Z,19.50
2018-09-15T13:18:13.755Z,19.80
2018-09-15T13:20:15.887Z,20.20
2018-09-15T13:22:18.053Z,20.50
2018-09-15T13:24:20.169Z,21.30
2018-09-15T13:26:22.334Z,21.30
2018-09-15T13:28:24.420Z,21.00
2018-09-15T13:30:26.534Z,20.80
2018-09-15T13:32:28.732Z,20.70
2018-09-15T13:34:30.904Z,20.60
2018-09-15T13:36:33.029Z,20.50
2018-09-15T13:38:35.140Z,20.30
2018-09-15T13:40:37.231Z,20.30
2018-09-15T13:42:39.318Z,20.10
2018-09-15T13:44:41.547Z,20.10
2018-09-15T13:46:43.722Z,20.00
2018-09-15T13:48:46.045Z,19.90
2018-09-15T13:50:48.179Z,19.80
2018-09-15T13:52:50.336Z,19.70
2018-09-15T13:54:52.490Z,19.60
2018-09-15T13:56:54.617Z,19.60
2018-09-15T13:58:56.794Z,19.50
2018-09-15T14:00:58.950Z,19.50
2018-09-15T14:03:01.100Z,19.30
2018-09-15T14:05:03.603Z,19.30
2018-09-15T14:07:05.781Z,19.20
2018-09-15T14:09:09.166Z,19.20
2018-09-15T14:11:11.333Z,19.20
2018-09-15T14:13:13.498Z,19.20
2018-09-15T14:15:15.658Z,19.30
2018-09-15T14:17:17.809Z,19.30
2018-09-15T14:19:19.949Z,19.50
2018-09-15T14:21:22.078Z,19.80
2018-09-15T14:23:24.257Z,20.30
2018-09-15T14:25:26.785Z,21.10
2018-09-15T14:27:28.926Z,21.50
2018-09-15T14:29:31.031Z,22.00
2018-09-15T14:31:33.189Z,21.70
2018-09-15T14:33:35.349Z,21.70
2018-09-15T14:35:37.928Z,21.40
2018-09-15T14:37:40.074Z,21.60
2018-09-15T14:39:42.214Z,22.00
2018-09-15T14:41:44.368Z,22.00
2018-09-15T14:43:46.568Z,22.10
2018-09-15T14:45:48.710Z,22.20
2018-09-15T14:47:50.853Z,22.30
2018-09-15T14:49:53.039Z,22.20
2018-09-15T14:51:55.235Z,22.40
2018-09-15T14:53:57.381Z,22.20
2018-09-15T14:55:59.528Z,22.30
2018-09-15T14:58:01.636Z,22.00
2018-09-15T15:00:05.718Z,21.80
2018-09-15T15:02:08.138Z,21.90
2018-09-15T15:04:10.267Z,21.80
2018-09-15T15:06:12.439Z,21.80
2018-09-15T15:08:14.577Z,21.90
2018-09-15T15:10:16.745Z,21.70
2018-09-15T15:12:18.940Z,21.70
2018-09-15T15:14:21.075Z,21.60
2018-09-15T15:16:23.163Z,21.60
2018-09-15T15:18:25.284Z,21.50
2018-09-15T15:20:27.420Z,21.40
2018-09-15T15:22:29.564Z,20.90
2018-09-15T15:24:31.719Z,20.70
2018-09-15T15:26:33.964Z,20.50
2018-09-15T15:28:36.028Z,20.30
2018-09-15T15:30:38.177Z,20.10
2018-09-15T15:32:40.374Z,20.20
2018-09-15T15:34:42.541Z,20.10
2018-09-15T15:36:44.705Z,20.10
2018-09-15T15:38:47.747Z,19.90
2018-09-15T15:40:49.975Z,19.80
2018-09-15T15:42:52.133Z,19.70
2018-09-15T15:44:54.314Z,19.60
2018-09-15T15:46:56.476Z,19.60
2018-09-15T15:48:58.739Z,19.50
2018-09-15T15:51:00.957Z,19.50
2018-09-15T15:53:03.128Z,19.40
2018-09-15T15:55:05.327Z,19.40
2018-09-15T15:57:07.481Z,19.40
2018-09-15T15:59:09.666Z,19.30
2018-09-15T16:01:11.813Z,19.30
2018-09-15T16:03:13.971Z,19.20
2018-09-15T16:05:16.135Z,19.20
2018-09-15T16:07:19.563Z,19.10
2018-09-15T16:09:21.887Z,19.10
2018-09-15T16:11:24.034Z,19.10
2018-09-15T16:13:26.209Z,19.10
2018-09-15T16:15:28.353Z,19.10
2018-09-15T16:17:30.518Z,19.00
2018-09-15T16:19:32.751Z,19.10
2018-09-15T16:21:34.915Z,19.10
2018-09-15T16:23:37.085Z,19.10
2018-09-15T16:25:39.305Z,19.20
2018-09-15T16:27:41.387Z,19.20
2018-09-15T16:29:43.528Z,19.30
2018-09-15T16:31:45.750Z,19.20
2018-09-15T16:33:48.080Z,19.30
2018-09-15T16:35:50.251Z,19.20
